Time;durP1;ratioP1;P1;durP2;ratioP2;P2;SDS_P1;SDS_P2;PMS_P1;PMS_P2;Temp;Humidity;BMP_temperature;BMP_pressure;BME280_temperature;BME280_humidity;BME280_pressure;Samples;Min_cycle;Max_cycle;Signal;HPM_P1;HPM_P2
2023/04/27 00:00:50;;;;;;;12.98;6.93;;;1.90;99.90;;;;;;5079334;28;20055;-66
2023/04/27 00:03:16;;;;;;;13.23;6.07;;;1.90;99.90;;;;;;5018703;28;212440;-68
2023/04/27 00:05:42;;;;;;;14.65;6.55;;;1.90;99.90;;;;;;5073753;28;20052;-68
2023/04/27 00:08:08;;;;;;;18.90;6.68;;;1.80;99.90;;;;;;4994223;28;211495;-68
2023/04/27 00:10:35;;;;;;;12.32;6.10;;;1.80;99.90;;;;;;5053835;28;20053;-68
2023/04/27 00:13:01;;;;;;;14.15;6.38;;;1.80;99.90;;;;;;5020463;28;212922;-65
2023/04/27 00:15:28;;;;;;;12.85;5.95;;;1.80;99.90;;;;;;5075770;28;20048;-69
2023/04/27 00:17:54;;;;;;;12.63;6.18;;;1.90;99.90;;;;;;5022308;28;209953;-68
2023/04/27 00:20:20;;;;;;;15.93;5.80;;;1.80;99.90;;;;;;5074098;28;20052;-66
2023/04/27 00:22:46;;;;;;;11.88;5.35;;;1.80;99.90;;;;;;4986164;28;206941;-67
2023/04/27 00:25:12;;;;;;;14.02;5.47;;;1.80;99.90;;;;;;5066755;28;20048;-68
2023/04/27 00:27:40;;;;;;;15.90;5.43;;;1.80;99.90;;;;;;5020045;28;214413;-68
2023/04/27 00:30:07;;;;;;;14.80;5.70;;;1.80;99.90;;;;;;5075452;28;20055;-67
2023/04/27 00:32:33;;;;;;;12.65;6.13;;;1.80;99.90;;;;;;5018224;28;208729;-68
2023/04/27 00:34:59;;;;;;;19.05;7.18;;;1.80;99.90;;;;;;5075725;28;20048;-68
2023/04/27 00:37:25;;;;;;;16.65;6.55;;;1.80;99.90;;;;;;5011763;28;207362;-68
2023/04/27 00:39:51;;;;;;;13.75;6.60;;;1.90;99.90;;;;;;5061262;28;20060;-68
2023/04/27 00:42:18;;;;;;;16.15;6.90;;;1.90;99.90;;;;;;5023750;28;215600;-68
2023/04/27 00:44:47;;;;;;;12.65;6.47;;;2.00;99.90;;;;;;5074860;28;20072;-67
2023/04/27 00:47:15;;;;;;;14.30;6.95;;;2.00;99.90;;;;;;5022988;28;226588;-67
2023/04/27 00:49:41;;;;;;;14.23;7.28;;;2.10;99.90;;;;;;5078198;28;20059;-67
2023/04/27 00:52:07;;;;;;;19.60;7.70;;;2.10;99.90;;;;;;4993271;28;217271;-68
2023/04/27 00:54:33;;;;;;;13.85;6.82;;;2.10;99.90;;;;;;5031781;28;20526;-67
2023/04/27 00:56:59;;;;;;;17.83;6.75;;;2.20;99.90;;;;;;4979159;28;237967;-66
2023/04/27 00:59:25;;;;;;;15.68;7.30;;;2.20;99.90;;;;;;5062002;28;20048;-68
2023/04/27 01:01:52;;;;;;;18.98;7.80;;;2.20;99.90;;;;;;5018993;28;212116;-68
2023/04/27 01:04:18;;;;;;;14.63;7.38;;;2.20;99.90;;;;;;5062164;28;20532;-68
2023/04/27 01:06:45;;;;;;;23.45;8.05;;;2.30;99.90;;;;;;5024246;28;212219;-67
2023/04/27 01:09:11;;;;;;;18.15;7.57;;;2.20;99.90;;;;;;5074084;28;20394;-67
2023/04/27 01:11:37;;;;;;;15.68;7.35;;;2.20;99.90;;;;;;5021670;28;216155;-66
2023/04/27 01:14:05;;;;;;;14.80;7.10;;;2.10;99.90;;;;;;5072956;28;20077;-67
2023/04/27 01:16:32;;;;;;;15.70;7.72;;;2.10;99.90;;;;;;5017662;28;210520;-67
2023/04/27 01:18:58;;;;;;;16.73;7.40;;;2.00;99.90;;;;;;5072484;28;20391;-67
2023/04/27 01:21:26;;;;;;;16.20;7.75;;;2.00;99.90;;;;;;5017818;28;213126;-67
2023/04/27 01:23:52;;;;;;;16.45;7.90;;;2.00;99.90;;;;;;5075802;28;20045;-66
2023/04/27 01:26:19;;;;;;;17.30;7.80;;;2.00;99.90;;;;;;5018146;28;211092;-66
2023/04/27 01:28:45;;;;;;;14.25;7.15;;;1.90;99.90;;;;;;5056682;28;20067;-68
2023/04/27 01:31:11;;;;;;;16.52;8.20;;;1.90;99.90;;;;;;5024625;28;212907;-69
2023/04/27 01:33:38;;;;;;;14.98;7.18;;;1.90;99.90;;;;;;5075947;28;20056;-68
2023/04/27 01:36:05;;;;;;;17.67;7.70;;;1.80;99.90;;;;;;5053172;28;227147;-68
2023/04/27 01:38:35;;;;;;;14.35;7.30;;;1.80;99.90;;;;;;4990284;28;20051;-67
2023/04/27 01:41:03;;;;;;;15.45;8.15;;;1.70;99.90;;;;;;5069090;28;20050;-67
2023/04/27 01:43:30;;;;;;;18.33;8.43;;;1.70;99.90;;;;;;5033667;28;26501;-66
2023/04/27 01:46:07;;;;;;;17.20;7.72;;;1.70;99.90;;;;;;5075611;28;20056;-67
2023/04/27 01:48:34;;;;;;;14.73;7.78;;;1.70;99.90;;;;;;5016862;28;103215;-68
2023/04/27 01:51:01;;;;;;;16.77;8.07;;;1.70;99.90;;;;;;5072463;28;20059;-68
2023/04/27 01:53:27;;;;;;;15.55;7.60;;;1.60;99.90;;;;;;5019834;28;251798;-69
2023/04/27 01:55:53;;;;;;;13.48;7.60;;;1.60;99.90;;;;;;5072088;28;20052;-67
2023/04/27 01:58:19;;;;;;;14.88;8.20;;;1.50;99.90;;;;;;5010886;28;210719;-68
2023/04/27 02:00:45;;;;;;;15.57;7.75;;;1.50;99.90;;;;;;5090003;28;20534;-68
2023/04/27 02:03:11;;;;;;;19.00;8.43;;;1.60;99.90;;;;;;5006689;28;210820;-67
2023/04/27 02:05:38;;;;;;;16.23;8.13;;;1.60;99.90;;;;;;5079056;28;20160;-68
2023/04/27 02:08:04;;;;;;;18.08;8.15;;;1.60;99.90;;;;;;5010271;28;216676;-67
2023/04/27 02:10:30;;;;;;;17.30;8.13;;;1.60;99.90;;;;;;5071952;28;20059;-69
2023/04/27 02:12:56;;;;;;;15.45;7.95;;;1.60;99.90;;;;;;5007501;28;210566;-67
2023/04/27 02:15:22;;;;;;;17.63;8.05;;;1.60;99.90;;;;;;5069965;28;20063;-68
2023/04/27 02:17:49;;;;;;;18.65;7.90;;;1.60;99.90;;;;;;5022581;28;210936;-68
2023/04/27 02:20:15;;;;;;;15.57;7.32;;;1.50;99.90;;;;;;5071712;28;20052;-67
2023/04/27 02:22:43;;;;;;;19.35;8.05;;;1.50;99.90;;;;;;5022580;28;213666;-67
2023/04/27 02:25:10;;;;;;;18.75;7.72;;;1.50;99.90;;;;;;5074868;28;20055;-68
2023/04/27 02:27:40;;;;;;;15.05;7.70;;;1.50;99.90;;;;;;4999017;28;209148;-68
2023/04/27 02:30:07;;;;;;;13.82;7.35;;;1.40;99.90;;;;;;5067333;28;20107;-69
2023/04/27 02:32:33;;;;;;;16.02;7.57;;;1.40;99.90;;;;;;4997064;28;212431;-69
2023/04/27 02:35:00;;;;;;;15.93;7.30;;;1.40;99.90;;;;;;5053778;28;20056;-67
2023/04/27 02:37:27;;;;;;;17.60;8.13;;;1.40;99.90;;;;;;5000656;28;214598;-67
2023/04/27 02:39:53;;;;;;;19.42;8.43;;;1.40;99.90;;;;;;5054380;28;20059;-67
2023/04/27 02:42:19;;;;;;;16.85;8.00;;;1.40;99.90;;;;;;4984286;28;210506;-68
2023/04/27 02:44:46;;;;;;;18.42;7.68;;;1.30;99.90;;;;;;5047322;28;20056;-67
2023/04/27 02:47:12;;;;;;;17.48;7.30;;;1.30;99.90;;;;;;5012709;28;210716;-67
2023/04/27 02:49:38;;;;;;;17.90;8.25;;;1.20;99.90;;;;;;5078901;28;20048;-67
2023/04/27 02:52:05;;;;;;;14.80;8.00;;;1.20;99.90;;;;;;5013879;28;216944;-66
2023/04/27 02:54:31;;;;;;;17.02;8.10;;;1.10;99.90;;;;;;5068377;28;20056;-67
2023/04/27 02:56:57;;;;;;;15.73;7.45;;;1.10;99.90;;;;;;5010212;28;210152;-68
2023/04/27 02:59:23;;;;;;;15.27;7.55;;;1.10;99.90;;;;;;5084349;28;20059;-67
2023/04/27 03:01:50;;;;;;;15.93;7.47;;;1.00;99.90;;;;;;5013375;28;213327;-68
2023/04/27 03:04:16;;;;;;;19.42;8.00;;;1.00;99.90;;;;;;5058770;28;20055;-68
2023/04/27 03:06:43;;;;;;;13.73;7.43;;;0.90;99.90;;;;;;5017396;28;217042;-67
2023/04/27 03:09:09;;;;;;;19.23;7.63;;;0.90;99.90;;;;;;5062651;28;20059;-66
2023/04/27 03:11:36;;;;;;;18.20;8.13;;;0.90;99.90;;;;;;5008260;28;213406;-67
2023/04/27 03:14:03;;;;;;;13.90;7.45;;;0.90;99.90;;;;;;5080549;28;20048;-67
2023/04/27 03:16:32;;;;;;;15.38;7.65;;;0.80;99.90;;;;;;5012802;28;225587;-68
2023/04/27 03:18:58;;;;;;;16.50;8.05;;;0.80;99.90;;;;;;5082093;28;20560;-68
2023/04/27 03:21:25;;;;;;;17.67;7.72;;;0.80;99.90;;;;;;5013044;28;216526;-68
2023/04/27 03:23:52;;;;;;;19.25;7.97;;;0.70;99.90;;;;;;5069570;28;20040;-69
2023/04/27 03:26:19;;;;;;;14.73;7.05;;;0.70;99.90;;;;;;5017466;28;210722;-68
2023/04/27 03:28:45;;;;;;;19.90;7.57;;;0.70;99.90;;;;;;5089404;28;20060;-67
2023/04/27 03:31:13;;;;;;;15.27;6.88;;;0.60;99.90;;;;;;5016461;28;209666;-67
2023/04/27 03:33:40;;;;;;;18.13;7.32;;;0.60;99.90;;;;;;5055941;28;20380;-67
2023/04/27 03:36:08;;;;;;;16.13;7.50;;;0.60;99.90;;;;;;5034415;28;215226;-66
2023/04/27 03:38:35;;;;;;;18.98;8.10;;;0.50;99.90;;;;;;5024069;28;20048;-67
2023/04/27 03:41:01;;;;;;;14.70;7.32;;;0.50;99.90;;;;;;5055831;28;20052;-67
2023/04/27 03:43:27;;;;;;;14.45;7.55;;;0.50;99.90;;;;;;5023697;28;205665;-66
2023/04/27 03:45:53;;;;;;;14.82;7.00;;;0.50;99.90;;;;;;5073263;28;20045;-66
2023/04/27 03:48:19;;;;;;;18.15;7.68;;;0.40;99.90;;;;;;5024664;28;210947;-67
2023/04/27 03:50:46;;;;;;;13.05;7.22;;;0.40;99.90;;;;;;5080373;28;20059;-67
2023/04/27 03:53:12;;;;;;;14.00;7.20;;;0.40;99.90;;;;;;5021504;28;214712;-66
2023/04/27 03:55:41;;;;;;;18.02;7.63;;;0.40;99.90;;;;;;5077338;28;20135;-67
2023/04/27 03:58:09;;;;;;;16.58;8.05;;;0.40;99.90;;;;;;4980009;28;237466;-67
2023/04/27 04:00:36;;;;;;;16.52;8.30;;;0.40;99.90;;;;;;5063643;28;20511;-68
2023/04/27 04:03:02;;;;;;;17.42;7.63;;;0.40;99.90;;;;;;5012537;28;211703;-65
2023/04/27 04:05:31;;;;;;;16.17;7.85;;;0.30;99.90;;;;;;5078275;28;20044;-66
2023/04/27 04:07:57;;;;;;;16.35;7.50;;;0.30;99.90;;;;;;5021010;28;212150;-67
2023/04/27 04:10:24;;;;;;;14.93;7.35;;;0.30;99.90;;;;;;5074657;28;20064;-66
2023/04/27 04:12:51;;;;;;;16.30;6.97;;;0.40;99.90;;;;;;5009613;28;211046;-67
2023/04/27 04:15:18;;;;;;;15.40;7.40;;;0.30;99.90;;;;;;5065161;28;20045;-68
2023/04/27 04:17:46;;;;;;;16.15;7.70;;;0.40;99.90;;;;;;5004022;28;210248;-68
2023/04/27 04:20:12;;;;;;;16.50;7.50;;;0.40;99.90;;;;;;5056550;28;20059;-67
2023/04/27 04:22:38;;;;;;;17.20;7.90;;;0.40;99.90;;;;;;5002590;28;215027;-65
2023/04/27 04:25:05;;;;;;;16.17;7.95;;;0.30;99.90;;;;;;5055735;28;20490;-67
2023/04/27 04:27:32;;;;;;;15.90;7.68;;;0.30;99.90;;;;;;4980426;28;212599;-67
2023/04/27 04:29:59;;;;;;;14.18;7.22;;;0.30;99.90;;;;;;5045523;28;20052;-65
2023/04/27 04:32:30;;;;;;;15.45;7.72;;;0.30;99.90;;;;;;5003333;28;205357;-66
2023/04/27 04:34:57;;;;;;;16.23;7.70;;;0.40;99.90;;;;;;5056162;28;20057;-67
2023/04/27 04:37:23;;;;;;;16.65;8.13;;;0.40;99.90;;;;;;4982851;28;248901;-65
2023/04/27 04:39:49;;;;;;;15.27;8.00;;;0.40;99.90;;;;;;5049165;28;20071;-66
2023/04/27 04:42:16;;;;;;;18.17;8.63;;;0.40;99.90;;;;;;4989725;28;210751;-66
2023/04/27 04:44:42;;;;;;;14.55;7.28;;;0.40;99.90;;;;;;5046861;28;20044;-66
2023/04/27 04:47:11;;;;;;;16.08;8.13;;;0.40;99.90;;;;;;5000588;28;215400;-67
2023/04/27 04:49:37;;;;;;;17.02;8.90;;;0.50;99.90;;;;;;5057742;28;20688;-65
2023/04/27 04:52:03;;;;;;;16.00;8.57;;;0.50;99.90;;;;;;5004806;28;214035;-66
2023/04/27 04:54:30;;;;;;;20.13;9.38;;;0.60;99.90;;;;;;5053623;28;20049;-66
2023/04/27 04:56:57;;;;;;;18.42;9.15;;;0.60;99.90;;;;;;4981109;28;212335;-66
2023/04/27 04:59:24;;;;;;;17.38;8.13;;;0.60;99.90;;;;;;5061682;28;20067;-66
2023/04/27 05:01:54;;;;;;;18.35;9.00;;;0.70;99.90;;;;;;5016415;28;210480;-65
2023/04/27 05:04:21;;;;;;;16.15;8.32;;;0.90;99.90;;;;;;5065065;28;20066;-67
2023/04/27 05:06:47;;;;;;;17.92;9.43;;;1.00;99.90;;;;;;5021352;28;212677;-66
2023/04/27 05:09:14;;;;;;;16.95;8.15;;;1.10;99.90;;;;;;5072251;28;20056;-67
2023/04/27 05:11:40;;;;;;;16.95;8.80;;;1.20;99.90;;;;;;5018502;28;211024;-66
2023/04/27 05:14:06;;;;;;;17.63;9.07;;;1.30;99.90;;;;;;5071637;28;20049;-68
2023/04/27 05:16:32;;;;;;;16.92;8.80;;;1.40;99.90;;;;;;5015500;28;211314;-67
2023/04/27 05:18:58;;;;;;;18.10;8.75;;;1.70;99.90;;;;;;5075517;28;20064;-67
2023/04/27 05:21:24;;;;;;;16.52;8.60;;;1.80;99.90;;;;;;5008961;28;224030;-66
2023/04/27 05:23:50;;;;;;;17.00;8.38;;;2.10;99.90;;;;;;5085767;28;20052;-67
2023/04/27 05:26:17;;;;;;;15.05;7.90;;;2.40;99.90;;;;;;5012214;28;212537;-68
2023/04/27 05:28:43;;;;;;;16.38;7.68;;;2.60;99.90;;;;;;5076447;28;20517;-68
2023/04/27 05:31:09;;;;;;;14.15;7.50;;;2.70;99.90;;;;;;5021435;28;208049;-65
2023/04/27 05:33:36;;;;;;;15.00;7.80;;;2.60;99.90;;;;;;5045050;28;20052;-67
2023/04/27 05:36:02;;;;;;;14.43;7.43;;;2.50;99.90;;;;;;5078193;28;20062;-67
2023/04/27 05:38:28;;;;;;;15.77;7.35;;;2.40;99.90;;;;;;4985349;28;206504;-66
2023/04/27 05:40:55;;;;;;;16.25;7.93;;;2.30;99.90;;;;;;5065054;28;20041;-67
2023/04/27 05:43:22;;;;;;;15.95;7.68;;;2.30;99.90;;;;;;4986106;28;205609;-67
2023/04/27 05:45:48;;;;;;;14.93;7.28;;;2.30;99.90;;;;;;5057595;28;20041;-67
2023/04/27 05:48:14;;;;;;;15.35;7.32;;;2.40;99.90;;;;;;5004361;28;213201;-67
2023/04/27 05:50:40;;;;;;;14.63;7.53;;;2.40;99.90;;;;;;5081132;28;20056;-66
2023/04/27 05:53:07;;;;;;;17.60;7.90;;;2.40;99.90;;;;;;4967165;28;213231;-67
2023/04/27 05:55:33;;;;;;;13.55;7.63;;;2.70;99.90;;;;;;5079930;28;20064;-67
2023/04/27 05:58:00;;;;;;;14.73;7.47;;;3.00;99.90;;;;;;5004827;28;216504;-66
2023/04/27 06:00:27;;;;;;;15.88;8.10;;;3.40;99.90;;;;;;5075602;28;20060;-67
2023/04/27 06:02:53;;;;;;;15.52;7.00;;;3.90;99.90;;;;;;5019494;28;216571;-67
2023/04/27 06:05:20;;;;;;;17.05;7.10;;;4.40;99.90;;;;;;5078371;28;20048;-67
2023/04/27 06:07:46;;;;;;;14.45;7.38;;;4.80;99.90;;;;;;5019789;28;215321;-68
2023/04/27 06:10:15;;;;;;;13.68;6.63;;;5.20;99.90;;;;;;5073633;28;20052;-68
2023/04/27 06:12:41;;;;;;;11.48;6.55;;;5.50;99.90;;;;;;4984321;28;210010;-66
2023/04/27 06:15:08;;;;;;;14.32;6.90;;;5.90;99.90;;;;;;5049531;28;20060;-68
2023/04/27 06:17:38;;;;;;;15.45;6.72;;;6.20;99.90;;;;;;4985706;28;238336;-68
2023/04/27 06:20:05;;;;;;;16.27;6.72;;;6.50;99.90;;;;;;5071301;28;20437;-68
2023/04/27 06:22:32;;;;;;;12.82;6.10;;;6.90;99.90;;;;;;5017957;28;213564;-68
2023/04/27 06:24:58;;;;;;;11.07;5.47;;;7.30;99.90;;;;;;5075011;28;20055;-68
2023/04/27 06:27:24;;;;;;;12.38;5.60;;;7.70;99.90;;;;;;5015035;28;213302;-68
2023/04/27 06:29:50;;;;;;;10.93;5.10;;;7.90;99.90;;;;;;5074042;28;20053;-69
2023/04/27 06:32:16;;;;;;;14.27;5.25;;;7.90;99.90;;;;;;5022324;28;207311;-69
2023/04/27 06:34:43;;;;;;;11.95;5.40;;;8.10;99.90;;;;;;5070444;28;20052;-69
2023/04/27 06:37:09;;;;;;;11.98;5.13;;;8.20;99.90;;;;;;5000395;28;212765;-69
2023/04/27 06:39:35;;;;;;;11.52;5.18;;;8.30;99.90;;;;;;5068710;28;20049;-68
2023/04/27 06:42:05;;;;;;;10.50;4.80;;;8.40;99.90;;;;;;5018924;28;225120;-68
2023/04/27 06:44:31;;;;;;;11.00;4.50;;;8.50;99.90;;;;;;5076350;28;20044;-69
2023/04/27 06:46:57;;;;;;;12.10;5.05;;;8.70;99.90;;;;;;5016751;28;209920;-68
2023/04/27 06:49:23;;;;;;;9.95;4.53;;;9.00;99.90;;;;;;5080831;28;20048;-69
2023/04/27 06:51:50;;;;;;;11.73;4.70;;;9.20;99.90;;;;;;5018793;28;210708;-68
2023/04/27 06:54:16;;;;;;;12.05;4.20;;;9.30;99.90;;;;;;5073197;28;20060;-69
2023/04/27 06:56:42;;;;;;;11.02;3.97;;;9.40;99.90;;;;;;4993326;28;219365;-68
2023/04/27 06:59:08;;;;;;;14.00;3.72;;;9.60;99.90;;;;;;5070742;28;20048;-68
2023/04/27 07:01:34;;;;;;;9.95;3.33;;;9.80;99.90;;;;;;4995967;28;207132;-69
2023/04/27 07:04:00;;;;;;;10.93;2.92;;;9.80;99.90;;;;;;5043294;28;20044;-69
2023/04/27 07:06:27;;;;;;;11.25;3.35;;;9.80;99.90;;;;;;4997450;28;209115;-69
2023/04/27 07:08:53;;;;;;;10.15;3.30;;;9.80;99.90;;;;;;5033888;28;20053;-68
2023/04/27 07:11:20;;;;;;;11.32;3.42;;;10.00;99.90;;;;;;5003577;28;213858;-68
2023/04/27 07:13:46;;;;;;;9.15;3.00;;;10.20;99.90;;;;;;5041534;28;20074;-68
2023/04/27 07:16:12;;;;;;;10.25;2.80;;;10.40;99.90;;;;;;4999552;28;212319;-69
2023/04/27 07:18:38;;;;;;;9.80;2.97;;;10.60;99.90;;;;;;5081237;28;20063;-69
2023/04/27 07:21:05;;;;;;;8.60;2.58;;;10.80;99.90;;;;;;5057938;28;230276;-69
2023/04/27 07:23:31;;;;;;;9.85;2.58;;;10.90;99.90;;;;;;5043850;28;20426;-67
2023/04/27 07:25:58;;;;;;;7.57;2.42;;;10.90;99.90;;;;;;5072011;28;20052;-68
2023/04/27 07:28:24;;;;;;;8.75;2.45;;;10.90;99.90;;;;;;4980351;28;206591;-68
2023/04/27 07:30:50;;;;;;;10.15;2.50;;;10.90;99.90;;;;;;5076040;28;20056;-68
2023/04/27 07:33:16;;;;;;;9.02;2.70;;;10.60;99.90;;;;;;5032798;28;212757;-68
2023/04/27 07:35:42;;;;;;;9.05;2.40;;;10.60;99.90;;;;;;5080575;28;20056;-68
2023/04/27 07:38:09;;;;;;;9.75;2.50;;;10.50;99.20;;;;;;5007784;28;212185;-69
2023/04/27 07:40:35;;;;;;;9.38;2.10;;;10.80;99.90;;;;;;5076973;28;22040;-69
2023/04/27 07:43:02;;;;;;;7.20;1.88;;;11.10;99.90;;;;;;5033349;28;221243;-68
2023/04/27 07:45:32;;;;;;;7.38;1.80;;;11.30;99.20;;;;;;5076051;28;20047;-70
2023/04/27 07:48:00;;;;;;;9.10;1.90;;;11.10;98.20;;;;;;5026647;28;206760;-68
2023/04/27 07:50:28;;;;;;;8.95;2.30;;;10.90;97.90;;;;;;5076892;28;20564;-68
2023/04/27 07:52:55;;;;;;;7.00;2.10;;;10.90;98.30;;;;;;4971069;28;213213;-68
2023/04/27 07:55:22;;;;;;;7.10;2.20;;;10.90;97.50;;;;;;5058168;28;20060;-68
2023/04/27 07:57:52;;;;;;;9.82;2.38;;;11.10;98.80;;;;;;4974562;28;205157;-68
2023/04/27 08:00:19;;;;;;;9.35;2.40;;;11.30;97.40;;;;;;5052991;28;20056;-68
2023/04/27 08:02:45;;;;;;;9.73;2.30;;;11.40;97.10;;;;;;5017551;28;211859;-68
2023/04/27 08:05:12;;;;;;;7.60;2.10;;;11.70;97.20;;;;;;5065667;28;20059;-68
2023/04/27 08:07:38;;;;;;;6.55;2.00;;;12.20;97.90;;;;;;5018484;28;214382;-68
2023/04/27 08:10:08;;;;;;;9.02;2.08;;;12.50;97.30;;;;;;5074487;28;20394;-69
2023/04/27 08:12:35;;;;;;;8.90;2.13;;;12.70;97.20;;;;;;4999025;28;206527;-69
2023/04/27 08:15:01;;;;;;;8.93;2.15;;;13.00;95.80;;;;;;5067009;28;20045;-67
2023/04/27 08:17:27;;;;;;;7.93;2.03;;;13.20;97.20;;;;;;5012546;28;210741;-68
2023/04/27 08:19:53;;;;;;;8.45;2.20;;;13.50;95.80;;;;;;5072631;28;20044;-69
2023/04/27 08:22:19;;;;;;;8.55;2.33;;;13.60;96.70;;;;;;5015577;28;224598;-69
2023/04/27 08:24:45;;;;;;;6.13;1.70;;;13.70;94.40;;;;;;5072194;28;20228;-68
2023/04/27 08:27:12;;;;;;;6.60;1.60;;;13.40;95.70;;;;;;5009539;28;212340;-68
2023/04/27 08:29:38;;;;;;;7.40;1.90;;;13.20;95.50;;;;;;5069451;28;20048;-68
2023/04/27 08:32:04;;;;;;;4.70;1.30;;;13.50;96.00;;;;;;5008982;28;207819;-68
2023/04/27 08:34:31;;;;;;;8.20;1.70;;;13.60;94.10;;;;;;5010363;28;1053977;-68
2023/04/27 08:36:57;;;;;;;6.97;1.70;;;13.40;92.50;;;;;;5003377;28;215297;-68
2023/04/27 08:39:23;;;;;;;7.10;1.80;;;12.90;92.80;;;;;;5069741;28;21459;-68
2023/04/27 08:41:49;;;;;;;6.20;1.70;;;13.00;93.70;;;;;;5016786;28;235805;-69
2023/04/27 08:44:16;;;;;;;7.97;1.80;;;13.50;94.30;;;;;;5059524;28;20040;-68
2023/04/27 08:46:42;;;;;;;7.85;1.80;;;14.10;94.20;;;;;;5012378;28;217607;-68
2023/04/27 08:49:08;;;;;;;7.32;1.80;;;14.40;93.40;;;;;;5050376;28;20056;-68
2023/04/27 08:51:34;;;;;;;7.38;1.90;;;14.80;93.50;;;;;;5007949;28;212483;-68
2023/04/27 08:54:01;;;;;;;7.20;1.90;;;15.00;92.80;;;;;;5080980;28;20514;-67
2023/04/27 08:56:28;;;;;;;8.27;1.85;;;14.70;91.60;;;;;;5007901;28;196611;-68
2023/04/27 08:58:56;;;;;;;8.00;2.10;;;14.90;91.10;;;;;;5049106;28;20056;-69
2023/04/27 09:01:24;;;;;;;9.32;2.60;;;15.20;93.50;;;;;;5029022;28;212343;-68
2023/04/27 09:03:57;;;;;;;8.18;2.13;;;15.40;91.00;;;;;;5079461;28;20048;-68
2023/04/27 09:06:34;;;;;;;8.85;2.10;;;15.60;90.40;;;;;;5030510;28;227960;-70
2023/04/27 09:09:01;;;;;;;7.95;1.90;;;15.40;89.80;;;;;;5066192;28;20067;-68
2023/04/27 09:11:30;;;;;;;9.07;2.20;;;15.30;91.00;;;;;;5008195;28;221536;-69
2023/04/27 09:13:58;;;;;;;11.38;2.20;;;15.40;91.60;;;;;;5074235;28;20063;-68
2023/04/27 09:16:27;;;;;;;7.20;2.00;;;15.70;90.70;;;;;;5029243;28;219494;-69
2023/04/27 09:18:55;;;;;;;8.50;2.05;;;15.80;89.70;;;;;;5079333;28;20082;-68
2023/04/27 09:21:23;;;;;;;7.93;1.90;;;16.10;87.90;;;;;;5020240;28;215973;-69
2023/04/27 09:23:50;;;;;;;8.90;2.03;;;16.00;90.20;;;;;;5080209;28;20056;-69
2023/04/27 09:26:20;;;;;;;7.00;1.83;;;16.40;89.10;;;;;;5019454;28;207837;-69
2023/04/27 09:28:49;;;;;;;6.90;2.20;;;16.40;85.40;;;;;;5063727;28;20052;-69
2023/04/27 09:31:16;;;;;;;8.95;2.28;;;16.60;89.30;;;;;;5018467;28;207016;-69
2023/04/27 09:33:44;;;;;;;7.45;2.20;;;16.60;86.80;;;;;;5064296;28;20055;-69
2023/04/27 09:36:11;;;;;;;8.73;2.40;;;16.50;89.20;;;;;;5024113;28;226223;-68
2023/04/27 09:38:37;;;;;;;9.10;2.50;;;16.40;87.20;;;;;;5065222;28;20059;-70
2023/04/27 09:41:03;;;;;;;8.18;2.55;;;16.50;87.90;;;;;;5068705;28;211763;-70
2023/04/27 09:43:30;;;;;;;9.30;2.90;;;16.70;87.90;;;;;;5022617;28;206505;-68
2023/04/27 09:45:57;;;;;;;9.23;2.90;;;17.20;84.80;;;;;;5081012;28;20397;-68
2023/04/27 09:48:25;;;;;;;11.27;3.45;;;17.00;84.70;;;;;;5020084;28;210583;-67
2023/04/27 09:50:51;;;;;;;8.90;2.67;;;16.90;84.70;;;;;;5078387;28;20055;-68
2023/04/27 09:53:37;;;;;;;10.52;3.33;;;16.10;86.00;;;;;;4987483;28;212966;-68
2023/04/27 09:56:53;;;;;;;9.00;3.13;;;16.10;82.60;;;;;;5049404;28;215668;-68
2023/04/27 09:59:38;;;;;;;9.48;2.70;;;16.70;85.30;;;;;;5018990;28;20130;-68
2023/04/27 10:02:05;;;;;;;11.00;3.28;;;17.20;81.80;;;;;;5006005;28;218293;-69
2023/04/27 10:04:50;;;;;;;8.13;2.97;;;17.50;85.00;;;;;;5039285;28;22174;-68
2023/04/27 10:07:17;;;;;;;9.88;3.42;;;18.10;83.10;;;;;;5014275;28;218730;-69
2023/04/27 10:09:48;;;;;;;9.48;3.17;;;18.10;80.80;;;;;;5075930;28;20056;-69
2023/04/27 10:12:21;;;;;;;12.48;3.50;;;18.20;80.90;;;;;;5021977;28;215727;-69
2023/04/27 10:14:54;;;;;;;8.60;3.22;;;18.10;82.50;;;;;;5075728;28;20067;-69
2023/04/27 10:17:35;;;;;;;9.80;3.47;;;18.90;84.50;;;;;;5003704;28;218554;-68
2023/04/27 10:20:09;;;;;;;8.98;3.33;;;19.00;83.30;;;;;;5064062;28;20084;-68
2023/04/27 10:22:45;;;;;;;10.18;3.45;;;19.50;83.90;;;;;;4995821;28;212705;-67
2023/04/27 10:25:18;;;;;;;11.40;3.65;;;19.90;77.20;;;;;;5064963;28;20052;-68
2023/04/27 10:27:58;;;;;;;9.98;3.10;;;18.90;81.70;;;;;;5008988;28;216706;-67
2023/04/27 10:30:42;;;;;;;9.13;2.67;;;19.10;76.90;;;;;;5070551;28;20075;-69
2023/04/27 10:33:10;;;;;;;10.40;3.22;;;18.50;76.30;;;;;;5001869;28;208109;-67
2023/04/27 10:35:42;;;;;;;10.05;2.97;;;17.90;80.50;;;;;;5067040;28;20056;-68
2023/04/27 10:38:16;;;;;;;8.73;2.67;;;17.90;82.10;;;;;;5018217;28;209434;-66
2023/04/27 10:40:54;;;;;;;8.85;3.13;;;18.60;83.80;;;;;;5069477;28;20052;-66
2023/04/27 10:43:25;;;;;;;10.02;3.28;;;19.00;82.20;;;;;;5004355;28;213407;-68
2023/04/27 10:45:52;;;;;;;9.80;3.13;;;18.90;83.30;;;;;;5071504;28;20052;-67
2023/04/27 10:48:18;;;;;;;13.05;3.10;;;19.00;79.90;;;;;;4999171;28;207708;-68
2023/04/27 10:50:45;;;;;;;11.57;3.22;;;19.10;81.40;;;;;;5071313;28;20055;-68
2023/04/27 10:53:13;;;;;;;7.90;2.55;;;18.60;79.60;;;;;;4997457;28;208157;-67
2023/04/27 10:55:39;;;;;;;10.57;3.22;;;17.90;79.50;;;;;;5050068;28;20547;-68
2023/04/27 10:58:05;;;;;;;8.65;3.08;;;17.50;78.70;;;;;;4986982;28;207349;-67
2023/04/27 11:00:40;;;;;;;10.55;3.15;;;17.50;81.10;;;;;;5054519;28;20045;-68
2023/04/27 11:03:15;;;;;;;9.52;2.95;;;17.90;80.10;;;;;;4994281;28;215386;-67
2023/04/27 11:05:45;;;;;;;9.63;3.08;;;18.00;77.90;;;;;;5056653;28;20065;-68
2023/04/27 11:08:14;;;;;;;9.70;3.00;;;17.80;80.60;;;;;;5008068;28;210931;-68
2023/04/27 11:10:49;;;;;;;9.27;3.17;;;17.70;82.20;;;;;;5054851;28;20635;-67
2023/04/27 11:13:16;;;;;;;8.25;2.95;;;17.60;80.30;;;;;;4995628;28;229999;-68
2023/04/27 11:15:46;;;;;;;8.82;3.00;;;17.20;79.20;;;;;;5084810;28;20059;-67
2023/04/27 11:18:14;;;;;;;8.98;3.08;;;16.50;80.00;;;;;;5020997;28;211902;-68
2023/04/27 11:20:42;;;;;;;10.07;3.70;;;16.20;80.20;;;;;;5080060;28;20052;-67
2023/04/27 11:23:10;;;;;;;10.27;3.20;;;15.90;80.40;;;;;;5030470;28;218877;-67
2023/04/27 11:25:37;;;;;;;10.93;3.13;;;15.80;79.80;;;;;;5076866;28;20493;-67
2023/04/27 11:28:03;;;;;;;9.98;3.70;;;15.90;80.40;;;;;;5022180;28;210871;-68
2023/04/27 11:30:30;;;;;;;9.93;3.30;;;16.30;81.90;;;;;;5086466;28;20052;-68
2023/04/27 11:32:56;;;;;;;8.18;3.10;;;16.80;83.00;;;;;;5008127;28;209137;-67
2023/04/27 11:35:33;;;;;;;10.40;3.50;;;17.10;83.10;;;;;;5076388;28;20430;-68
2023/04/27 11:37:59;;;;;;;10.43;3.47;;;17.10;82.70;;;;;;5008403;28;213207;-69
2023/04/27 11:40:27;;;;;;;9.18;3.22;;;17.30;82.30;;;;;;5076108;28;20055;-66
2023/04/27 11:42:57;;;;;;;9.70;3.58;;;17.10;78.40;;;;;;5014097;28;210025;-68
2023/04/27 11:45:26;;;;;;;8.55;3.35;;;16.90;80.30;;;;;;5076554;28;20815;-67
2023/04/27 11:47:53;;;;;;;8.73;3.30;;;16.50;80.60;;;;;;5017541;28;208738;-67
2023/04/27 11:50:22;;;;;;;9.57;3.45;;;16.60;82.60;;;;;;5081918;28;20052;-68
2023/04/27 11:52:48;;;;;;;11.75;3.67;;;16.80;81.90;;;;;;5008100;28;222148;-68
2023/04/27 11:55:14;;;;;;;10.32;3.65;;;16.80;81.80;;;;;;5082091;28;20047;-68
2023/04/27 11:57:41;;;;;;;12.95;3.45;;;16.70;79.50;;;;;;5005547;28;211335;-67
2023/04/27 12:00:09;;;;;;;11.38;3.70;;;16.40;79.50;;;;;;5069769;28;20055;-68
2023/04/27 12:02:36;;;;;;;11.30;3.90;;;15.90;79.30;;;;;;5027491;28;219735;-67
2023/04/27 12:05:03;;;;;;;12.00;3.75;;;15.60;81.20;;;;;;5078122;28;20384;-69
2023/04/27 12:07:29;;;;;;;11.10;3.47;;;15.70;81.80;;;;;;5014718;28;213175;-67
2023/04/27 12:09:55;;;;;;;10.32;3.67;;;15.90;80.00;;;;;;5079868;28;20060;-67
2023/04/27 12:12:23;;;;;;;11.00;3.75;;;15.70;81.50;;;;;;5014718;28;212264;-68
2023/04/27 12:14:50;;;;;;;10.80;3.85;;;15.90;82.60;;;;;;5070464;28;20052;-68
2023/04/27 12:17:17;;;;;;;10.45;3.47;;;16.00;78.90;;;;;;5026591;28;218892;-67
2023/04/27 12:19:43;;;;;;;13.27;3.90;;;15.40;78.20;;;;;;5073785;28;20391;-66
2023/04/27 12:22:09;;;;;;;10.40;3.80;;;14.90;79.40;;;;;;5025366;28;214177;-68
2023/04/27 12:24:36;;;;;;;11.85;3.72;;;15.00;81.10;;;;;;5076712;28;20049;-68
2023/04/27 12:27:03;;;;;;;12.05;4.10;;;15.40;79.20;;;;;;5027761;28;215489;-67
2023/04/27 12:29:30;;;;;;;10.32;3.60;;;15.70;81.90;;;;;;5055677;28;20060;-68
2023/04/27 12:31:58;;;;;;;10.95;3.42;;;16.10;82.80;;;;;;5019601;28;208258;-69
2023/04/27 12:34:24;;;;;;;10.27;3.75;;;16.70;82.80;;;;;;5071241;28;20286;-69
2023/04/27 12:36:51;;;;;;;11.73;4.00;;;17.40;80.80;;;;;;5028019;28;215695;-68
2023/04/27 12:39:19;;;;;;;10.70;3.85;;;17.50;79.90;;;;;;5081245;28;20052;-69
2023/04/27 12:41:47;;;;;;;8.98;3.70;;;17.50;78.50;;;;;;5015983;28;212517;-68